createdAt,value
2022-10-24T00:01:22.415Z,98279.94
2022-10-24T00:06:20.160Z,98289.78
2022-10-24T00:08:47.459Z,98282.78
2022-10-24T00:11:23.083Z,98263.06
2022-10-24T00:13:51.226Z,98253.06
2022-10-24T00:16:18.381Z,98242.38
2022-10-24T00:18:45.316Z,98241.44
2022-10-24T00:21:12.290Z,98248.84
2022-10-24T00:27:12.367Z,98237.88
2022-10-24T00:32:50.651Z,98256.41
2022-10-24T00:35:17.768Z,98258.19
2022-10-24T00:37:44.814Z,98257.25
2022-10-24T00:40:15.121Z,98253.09
2022-10-24T00:42:42.020Z,98245.94
2022-10-24T00:45:47.701Z,98242.66
2022-10-24T00:48:18.620Z,98235.91
2022-10-24T00:50:46.571Z,98232.28
2022-10-24T00:53:14.459Z,98223.97
2022-10-24T00:55:41.363Z,98228.09
2022-10-24T00:58:08.909Z,98229.22
2022-10-24T01:00:36.334Z,98218.75
2022-10-24T01:03:03.336Z,98223.75
2022-10-24T01:05:37.872Z,98225.94
2022-10-24T01:08:07.721Z,98224.41
2022-10-24T01:11:36.149Z,98225.03
2022-10-24T01:14:18.545Z,98238.31
2022-10-24T01:16:51.937Z,98232.03
2022-10-24T01:19:34.041Z,98234.59
2022-10-24T01:22:06.402Z,98240.47
2022-10-24T01:24:58.301Z,98235.50
2022-10-24T01:27:36.652Z,98243.59
2022-10-24T01:30:12.353Z,98234.44
2022-10-24T01:32:41.541Z,98237.62
2022-10-24T01:38:57.561Z,98237.06
2022-10-24T01:41:26.648Z,98222.50
2022-10-24T01:44:02.938Z,98225.75
2022-10-24T01:46:35.373Z,98224.69
2022-10-24T01:49:13.077Z,98222.09
2022-10-24T01:51:40.171Z,98211.47
2022-10-24T01:57:00.941Z,98209.34
2022-10-24T01:59:30.640Z,98199.88
2022-10-24T02:02:07.123Z,98189.84
2022-10-24T02:04:38.047Z,98189.09
2022-10-24T02:07:07.713Z,98191.22
2022-10-24T02:09:35.910Z,98193.50
2022-10-24T02:12:03.255Z,98181.28
2022-10-24T02:14:53.988Z,98193.22
2022-10-24T02:17:21.054Z,98189.97
2022-10-24T02:19:48.489Z,98202.47
2022-10-24T02:22:18.271Z,98199.41
2022-10-24T02:24:48.058Z,98205.94
2022-10-24T02:27:18.583Z,98201.38
2022-10-24T02:30:12.472Z,98191.47
2022-10-24T02:32:42.882Z,98188.41
2022-10-24T02:35:12.134Z,98192.81
2022-10-24T02:37:49.367Z,98188.22
2022-10-24T02:40:18.421Z,98193.31
2022-10-24T02:42:46.789Z,98186.87
2022-10-24T02:45:15.797Z,98191.47
2022-10-24T02:47:44.101Z,98182.91
2022-10-24T02:50:11.334Z,98186.59
2022-10-24T02:52:39.668Z,98189.06
2022-10-24T02:55:07.081Z,98195.06
2022-10-24T02:57:34.068Z,98186.37
2022-10-24T03:00:00.925Z,98189.09
2022-10-24T03:02:27.909Z,98198.22
2022-10-24T03:04:54.805Z,98191.72
2022-10-24T03:07:21.776Z,98183.66
2022-10-24T03:09:48.701Z,98181.75
2022-10-24T03:12:18.641Z,98176.47
2022-10-24T03:17:13.327Z,98163.66
2022-10-24T03:19:40.213Z,98157.28
2022-10-24T03:22:07.068Z,98148.81
2022-10-24T03:24:43.860Z,98157.59
2022-10-24T03:27:20.797Z,98167.78
2022-10-24T03:29:47.691Z,98171.87
2022-10-24T03:32:14.800Z,98176.12
2022-10-24T03:34:41.808Z,98180.22
2022-10-24T03:37:08.669Z,98183.72
2022-10-24T03:39:35.514Z,98178.75
2022-10-24T03:42:02.430Z,98175.41
2022-10-24T03:44:29.322Z,98177.72
2022-10-24T03:46:56.157Z,98180.44
2022-10-24T03:49:23.023Z,98176.03
2022-10-24T03:51:49.894Z,98186.47
2022-10-24T03:54:16.804Z,98188.78
2022-10-24T03:56:44.282Z,98184.75
2022-10-24T03:59:11.247Z,98180.47
2022-10-24T04:01:38.221Z,98177.00
2022-10-24T04:04:05.415Z,98178.22
2022-10-24T04:06:35.548Z,98167.34
2022-10-24T04:09:04.375Z,98184.12
2022-10-24T04:11:31.500Z,98181.91
2022-10-24T04:13:59.089Z,98177.44
2022-10-24T04:16:26.042Z,98183.75
2022-10-24T04:18:52.959Z,98189.84
2022-10-24T04:21:21.742Z,98178.53
2022-10-24T04:23:49.304Z,98185.59
2022-10-24T04:26:16.973Z,98182.22
2022-10-24T04:28:44.118Z,98182.25
2022-10-24T04:31:11.046Z,98187.87
2022-10-24T04:33:37.964Z,98188.41
2022-10-24T04:36:44.922Z,98193.84
2022-10-24T04:39:11.884Z,98199.63
2022-10-24T04:41:38.751Z,98200.84
2022-10-24T04:44:05.720Z,98210.94
2022-10-24T04:46:32.815Z,98219.13
2022-10-24T04:48:59.866Z,98221.41
2022-10-24T04:51:26.867Z,98233.66
2022-10-24T04:53:53.784Z,98240.41
2022-10-24T04:56:20.764Z,98236.34
2022-10-24T04:58:47.630Z,98240.28
2022-10-24T05:01:14.845Z,98231.16
2022-10-24T05:03:41.763Z,98223.84
2022-10-24T05:06:08.707Z,98209.84
2022-10-24T05:08:36.412Z,98202.53
2022-10-24T05:11:03.742Z,98210.16
2022-10-24T05:13:32.988Z,98205.91
2022-10-24T05:16:03.555Z,98200.00
2022-10-24T05:18:30.428Z,98209.41
2022-10-24T05:20:58.775Z,98203.19
2022-10-24T05:23:26.283Z,98207.94
2022-10-24T05:25:53.534Z,98193.22
2022-10-24T05:28:20.657Z,98194.16
2022-10-24T05:30:47.505Z,98193.56
2022-10-24T05:33:14.461Z,98196.19
2022-10-24T05:35:41.973Z,98194.66
2022-10-24T05:38:09.149Z,98199.12
2022-10-24T05:40:36.044Z,98196.66
2022-10-24T05:43:03.316Z,98206.47
2022-10-24T05:45:30.151Z,98203.72
2022-10-24T05:47:57.073Z,98207.31
2022-10-24T05:50:23.941Z,98213.88
2022-10-24T05:52:50.800Z,98207.19
2022-10-24T05:55:18.429Z,98191.53
2022-10-24T05:57:45.964Z,98203.84
2022-10-24T06:00:14.902Z,98230.63
2022-10-24T06:02:54.100Z,98230.50
2022-10-24T06:05:21.366Z,98219.53
2022-10-24T06:07:48.624Z,98214.12
2022-10-24T06:10:18.864Z,98222.47
2022-10-24T06:12:45.981Z,98226.88
2022-10-24T06:15:13.763Z,98230.09
2022-10-24T06:17:40.880Z,98222.19
2022-10-24T06:20:08.422Z,98226.19
2022-10-24T06:22:35.307Z,98215.41
2022-10-24T06:25:02.255Z,98231.16
2022-10-24T06:27:29.162Z,98224.38
2022-10-24T06:29:56.002Z,98226.19
2022-10-24T06:32:22.906Z,98227.09
2022-10-24T06:34:50.715Z,98236.81
2022-10-24T06:37:17.635Z,98245.47
2022-10-24T06:39:44.530Z,98242.53
2022-10-24T06:42:11.444Z,98243.94
2022-10-24T06:44:38.833Z,98247.97
2022-10-24T06:47:06.561Z,98253.66
2022-10-24T06:49:33.815Z,98262.56
2022-10-24T06:52:00.684Z,98258.53
2022-10-24T06:54:41.346Z,98258.66
2022-10-24T06:57:08.267Z,98267.53
2022-10-24T06:59:35.128Z,98273.69
2022-10-24T07:02:05.065Z,98278.31
2022-10-24T07:04:50.752Z,98275.81
2022-10-24T07:07:21.996Z,98279.06
2022-10-24T07:09:57.589Z,98280.94
2022-10-24T07:12:25.371Z,98284.03
2022-10-24T07:14:53.261Z,98295.53
2022-10-24T07:17:20.579Z,98295.00
2022-10-24T07:19:53.595Z,98295.31
2022-10-24T07:22:20.724Z,98303.31
2022-10-24T07:24:55.384Z,98308.22
2022-10-24T07:27:23.236Z,98307.06
2022-10-24T07:29:51.783Z,98302.09
2022-10-24T07:32:19.341Z,98307.47
2022-10-24T07:34:58.448Z,98308.13
2022-10-24T07:39:56.976Z,98308.06
2022-10-24T07:42:23.896Z,98310.81
2022-10-24T07:45:13.654Z,98315.44
2022-10-24T07:47:40.627Z,98312.31
2022-10-24T07:50:08.199Z,98308.84
2022-10-24T07:52:35.059Z,98305.06
2022-10-24T07:55:26.440Z,98308.78
2022-10-24T07:57:53.418Z,98304.97
2022-10-24T08:00:20.497Z,98308.66
2022-10-24T08:05:23.016Z,98300.97
2022-10-24T08:07:56.123Z,98319.53
2022-10-24T08:10:32.637Z,98325.31
2022-10-24T08:12:59.515Z,98330.25
2022-10-24T08:15:28.558Z,98328.94
2022-10-24T08:17:55.561Z,98330.25
2022-10-24T08:20:24.308Z,98328.19
2022-10-24T08:22:51.199Z,98332.06
2022-10-24T08:25:18.154Z,98328.81
2022-10-24T08:27:45.051Z,98331.19
2022-10-24T08:30:12.454Z,98335.06
2022-10-24T08:32:39.400Z,98339.78
2022-10-24T08:35:07.810Z,98338.41
2022-10-24T08:40:15.380Z,98339.16
2022-10-24T08:42:42.326Z,98328.00
2022-10-24T08:45:25.907Z,98334.84
2022-10-24T08:48:07.534Z,98335.94
2022-10-24T08:50:35.934Z,98319.59
2022-10-24T08:53:15.716Z,98323.56
2022-10-24T08:55:50.239Z,98308.84
2022-10-24T08:58:29.484Z,98311.72
2022-10-24T09:00:59.795Z,98307.91
2022-10-24T09:04:00.299Z,98305.16
2022-10-24T09:06:29.752Z,98304.13
2022-10-24T09:09:08.511Z,98299.38
2022-10-24T09:11:56.054Z,98306.09
2022-10-24T09:14:33.287Z,98303.78
2022-10-24T09:19:56.135Z,98313.31
2022-10-24T09:22:24.764Z,98316.25
2022-10-24T09:24:59.179Z,98308.87
2022-10-24T09:27:31.352Z,98306.84
2022-10-24T09:29:59.169Z,98317.00
2022-10-24T09:32:30.799Z,98332.69
2022-10-24T09:35:07.312Z,98318.78
2022-10-24T09:37:44.301Z,98305.28
2022-10-24T09:40:28.799Z,98310.91
2022-10-24T09:43:04.773Z,98317.34
2022-10-24T09:45:38.009Z,98324.72
2022-10-24T09:48:26.035Z,98303.28
2022-10-24T09:50:57.007Z,98305.81
2022-10-24T09:53:39.672Z,98312.34
2022-10-24T09:56:14.517Z,98322.19
2022-10-24T09:58:42.179Z,98322.59
2022-10-24T10:01:15.172Z,98311.44
2022-10-24T10:03:42.642Z,98318.00
2022-10-24T10:06:18.529Z,98307.22
2022-10-24T10:08:54.343Z,98295.69
2022-10-24T10:11:31.555Z,98309.31
2022-10-24T10:14:01.673Z,98312.00
2022-10-24T10:16:34.880Z,98314.41
2022-10-24T10:19:05.636Z,98312.97
2022-10-24T10:21:51.433Z,98338.53
2022-10-24T10:24:37.877Z,98329.97
2022-10-24T10:27:30.617Z,98332.19
2022-10-24T10:30:21.022Z,98339.13
2022-10-24T10:32:59.715Z,98325.72
2022-10-24T10:39:16.304Z,98317.53
2022-10-24T10:41:57.534Z,98318.97
2022-10-24T10:44:49.512Z,98325.94
2022-10-24T10:47:27.587Z,98336.91
2022-10-24T10:49:57.576Z,98332.94
2022-10-24T10:52:24.420Z,98332.00
2022-10-24T10:54:51.207Z,98334.50
2022-10-24T10:57:42.731Z,98335.09
2022-10-24T11:00:16.975Z,98323.28
2022-10-24T11:03:05.327Z,98324.44
2022-10-24T11:05:50.237Z,98321.16
2022-10-24T11:08:32.030Z,98320.25
2022-10-24T11:11:04.834Z,98323.13
2022-10-24T11:13:39.322Z,98318.38
2022-10-24T11:16:13.958Z,98306.19
2022-10-24T11:18:44.298Z,98316.37
2022-10-24T11:21:13.662Z,98312.75
2022-10-24T11:23:52.568Z,98318.94
2022-10-24T11:26:33.301Z,98323.13
2022-10-24T11:29:21.259Z,98322.59
2022-10-24T11:31:55.656Z,98325.41
2022-10-24T11:34:28.836Z,98308.09
2022-10-24T11:37:01.452Z,98313.53
2022-10-24T11:39:32.769Z,98302.50
2022-10-24T11:42:33.197Z,98308.50
2022-10-24T11:45:13.923Z,98306.16
2022-10-24T11:48:03.079Z,98293.47
2022-10-24T11:50:48.411Z,98304.56
2022-10-24T11:53:28.850Z,98289.94
2022-10-24T11:56:03.895Z,98301.75
2022-10-24T11:58:31.817Z,98284.16
2022-10-24T12:01:16.355Z,98280.00
2022-10-24T12:04:05.574Z,98268.75
2022-10-24T12:06:59.734Z,98267.06
2022-10-24T12:09:45.394Z,98272.91
2022-10-24T12:12:39.815Z,98268.22
2022-10-24T12:15:47.648Z,98268.38
2022-10-24T12:18:38.541Z,98267.47
2022-10-24T12:21:15.148Z,98256.34
2022-10-24T12:23:43.033Z,98253.78
2022-10-24T12:26:21.540Z,98258.59
2022-10-24T12:28:59.448Z,98249.06
2022-10-24T12:31:31.296Z,98243.81
2022-10-24T12:34:16.866Z,98232.25
2022-10-24T12:37:31.026Z,98233.72
2022-10-24T12:39:58.767Z,98228.19
2022-10-24T12:42:25.674Z,98222.53
2022-10-24T12:45:28.578Z,98235.38
2022-10-24T12:50:28.996Z,98212.34
2022-10-24T12:53:31.959Z,98215.31
2022-10-24T12:55:58.751Z,98200.00
2022-10-24T12:58:30.126Z,98193.16
2022-10-24T13:01:26.197Z,98190.72
2022-10-24T13:04:06.234Z,98174.44
2022-10-24T13:07:05.832Z,98175.03
2022-10-24T13:09:42.944Z,98180.25
2022-10-24T13:12:36.407Z,98182.38
2022-10-24T13:15:22.294Z,98176.72
2022-10-24T13:18:00.023Z,98180.37
2022-10-24T13:20:37.363Z,98179.19
2022-10-24T13:23:27.099Z,98174.25
2022-10-24T13:25:58.632Z,98171.44
2022-10-24T13:28:25.432Z,98173.44
2022-10-24T13:31:17.704Z,98173.44
2022-10-24T13:33:45.908Z,98171.22
2022-10-24T13:36:23.116Z,98165.28
2022-10-24T13:39:00.755Z,98169.25
2022-10-24T13:41:28.908Z,98167.97
2022-10-24T13:43:59.518Z,98156.47
2022-10-24T13:46:37.104Z,98155.91
2022-10-24T13:49:05.256Z,98159.34
2022-10-24T13:51:34.829Z,98156.53
2022-10-24T13:54:07.681Z,98164.97
2022-10-24T13:56:38.434Z,98157.69
2022-10-24T13:59:05.313Z,98157.63
2022-10-24T14:01:36.431Z,98154.75
2022-10-24T14:04:03.450Z,98156.87
2022-10-24T14:06:32.001Z,98148.13
2022-10-24T14:09:07.491Z,98142.81
2022-10-24T14:11:35.459Z,98136.31
2022-10-24T14:14:07.205Z,98146.94
2022-10-24T14:16:35.836Z,98141.63
2022-10-24T14:19:29.548Z,98131.69
2022-10-24T14:21:58.604Z,98131.97
2022-10-24T14:24:26.082Z,98131.31
2022-10-24T14:26:57.044Z,98128.75
2022-10-24T14:29:27.834Z,98137.31
2022-10-24T14:32:01.430Z,98142.91
2022-10-24T14:34:35.197Z,98143.69
2022-10-24T14:37:12.582Z,98145.59
2022-10-24T14:39:39.817Z,98149.78
2022-10-24T14:42:13.832Z,98150.94
2022-10-24T14:44:42.159Z,98145.66
2022-10-24T14:47:20.848Z,98145.81
2022-10-24T14:49:47.968Z,98138.63
2022-10-24T14:52:14.774Z,98139.25
2022-10-24T14:54:44.249Z,98124.25
2022-10-24T14:57:20.377Z,98128.31
2022-10-24T14:59:48.390Z,98132.53
2022-10-24T15:02:29.643Z,98122.62
2022-10-24T15:05:16.624Z,98124.56
2022-10-24T15:07:57.267Z,98117.63
2022-10-24T15:10:36.696Z,98129.81
2022-10-24T15:13:10.803Z,98119.16
2022-10-24T15:15:47.956Z,98129.16
2022-10-24T15:18:26.637Z,98119.06
2022-10-24T15:21:01.729Z,98116.44
2022-10-24T15:23:31.610Z,98115.09
2022-10-24T15:26:12.423Z,98117.06
2022-10-24T15:28:44.626Z,98122.50
2022-10-24T15:31:15.997Z,98116.56
2022-10-24T15:33:43.123Z,98118.56
2022-10-24T15:36:24.457Z,98115.75
2022-10-24T15:38:56.464Z,98117.56
2022-10-24T15:41:23.639Z,98119.19
2022-10-24T15:43:50.630Z,98124.75
2022-10-24T15:46:17.550Z,98129.00
2022-10-24T15:48:45.645Z,98125.28
2022-10-24T15:51:15.711Z,98120.34
2022-10-24T15:53:43.398Z,98118.22
2022-10-24T15:56:11.892Z,98108.69
2022-10-24T15:58:40.238Z,98117.72
2022-10-24T16:01:08.718Z,98120.31
2022-10-24T16:03:36.079Z,98108.41
2022-10-24T16:06:04.599Z,98116.72
2022-10-24T16:08:31.931Z,98118.22
2022-10-24T16:10:58.805Z,98101.94
2022-10-24T16:13:25.724Z,98107.75
2022-10-24T16:15:52.792Z,98107.09
2022-10-24T16:18:19.627Z,98109.66
2022-10-24T16:20:46.808Z,98118.84
2022-10-24T16:23:15.452Z,98120.59
2022-10-24T16:25:43.627Z,98122.38
2022-10-24T16:28:10.825Z,98123.78
2022-10-24T16:30:39.179Z,98116.03
2022-10-24T16:33:06.173Z,98117.78
2022-10-24T16:35:35.130Z,98121.00
2022-10-24T16:38:02.553Z,98120.25
2022-10-24T16:40:29.953Z,98109.50
2022-10-24T16:42:58.389Z,98112.03
2022-10-24T16:45:25.981Z,98116.91
2022-10-24T16:47:52.951Z,98129.38
2022-10-24T16:50:24.908Z,98124.84
2022-10-24T16:53:00.106Z,98124.19
2022-10-24T16:55:27.989Z,98117.00
2022-10-24T16:57:54.920Z,98114.28
2022-10-24T17:00:22.714Z,98114.16
2022-10-24T17:02:51.826Z,98144.94
2022-10-24T17:05:20.773Z,98144.75
2022-10-24T17:07:47.969Z,98149.63
2022-10-24T17:10:18.391Z,98136.44
2022-10-24T17:12:47.713Z,98119.72
2022-10-24T17:15:18.094Z,98124.94
2022-10-24T17:17:48.470Z,98130.78
2022-10-24T17:20:15.907Z,98122.25
2022-10-24T17:22:44.618Z,98129.66
2022-10-24T17:25:19.584Z,98108.91
2022-10-24T17:27:46.966Z,98104.44
2022-10-24T17:30:22.328Z,98117.87
2022-10-24T17:32:49.685Z,98133.59
2022-10-24T17:35:19.051Z,98126.72
2022-10-24T17:38:07.933Z,98120.19
2022-10-24T17:40:42.949Z,98127.78
2022-10-24T17:43:25.624Z,98137.44
2022-10-24T17:45:54.870Z,98140.41
2022-10-24T17:48:22.206Z,98130.62
2022-10-24T17:50:49.498Z,98137.00
2022-10-24T17:53:18.382Z,98133.31
2022-10-24T17:55:47.034Z,98135.44
2022-10-24T17:58:15.181Z,98123.72
2022-10-24T18:00:42.181Z,98133.50
2022-10-24T18:03:09.136Z,98131.38
2022-10-24T18:05:38.504Z,98126.78
2022-10-24T18:08:10.760Z,98112.50
2022-10-24T18:10:41.042Z,98090.69
2022-10-24T18:13:08.576Z,98094.53
2022-10-24T18:15:36.387Z,98113.78
2022-10-24T18:18:03.304Z,98139.63
2022-10-24T18:20:30.393Z,98137.69
2022-10-24T18:22:58.293Z,98140.31
2022-10-24T18:25:25.161Z,98142.16
2022-10-24T18:27:52.034Z,98144.19
2022-10-24T18:30:19.693Z,98143.44
2022-10-24T18:32:47.164Z,98133.19
2022-10-24T18:35:14.455Z,98131.94
2022-10-24T18:37:41.460Z,98124.41
2022-10-24T18:40:09.641Z,98117.16
2022-10-24T18:42:59.094Z,98106.31
2022-10-24T18:45:27.498Z,98114.06
2022-10-24T18:47:54.694Z,98122.78
2022-10-24T18:50:23.833Z,98122.88
2022-10-24T18:53:02.152Z,98134.06
2022-10-24T18:55:31.500Z,98148.66
2022-10-24T18:57:58.831Z,98145.53
2022-10-24T19:00:31.688Z,98144.03
2022-10-24T19:03:33.806Z,98145.81
2022-10-24T19:06:15.806Z,98145.69
2022-10-24T19:08:42.764Z,98129.88
2022-10-24T19:13:42.420Z,98118.66
2022-10-24T19:16:13.065Z,98115.72
2022-10-24T19:18:40.617Z,98120.31
2022-10-24T19:21:08.151Z,98131.78
2022-10-24T19:23:34.994Z,98123.81
2022-10-24T19:26:01.858Z,98129.81
2022-10-24T19:28:28.718Z,98122.19
2022-10-24T19:30:55.630Z,98124.84
2022-10-24T19:33:25.153Z,98123.31
2022-10-24T19:35:52.011Z,98116.63
2022-10-24T19:38:19.321Z,98122.16
2022-10-24T19:40:47.637Z,98124.31
2022-10-24T19:43:14.475Z,98117.16
2022-10-24T19:45:49.940Z,98119.84
2022-10-24T19:48:17.853Z,98124.91
2022-10-24T19:50:44.778Z,98124.47
2022-10-24T19:53:14.388Z,98122.28
2022-10-24T19:55:44.245Z,98125.75
2022-10-24T19:58:11.835Z,98126.03
2022-10-24T20:00:39.425Z,98120.81
2022-10-24T20:03:06.318Z,98124.06
2022-10-24T20:05:33.242Z,98132.16
2022-10-24T20:08:00.218Z,98119.53
2022-10-24T20:10:27.277Z,98124.53
2022-10-24T20:12:54.140Z,98115.38
2022-10-24T20:15:20.999Z,98111.94
2022-10-24T20:17:47.872Z,98111.88
2022-10-24T20:20:14.872Z,98124.09
2022-10-24T20:22:41.759Z,98114.00
2022-10-24T20:25:08.669Z,98115.47
2022-10-24T20:27:38.913Z,98119.00
2022-10-24T20:30:06.417Z,98126.97
2022-10-24T20:32:33.259Z,98131.09
2022-10-24T20:35:00.112Z,98135.34
2022-10-24T20:37:26.985Z,98141.78
2022-10-24T20:39:53.848Z,98150.84
2022-10-24T20:42:22.378Z,98156.19
2022-10-24T20:44:50.255Z,98187.53
2022-10-24T20:47:17.101Z,98187.50
2022-10-24T20:49:43.943Z,98164.25
2022-10-24T20:54:42.506Z,98147.75
2022-10-24T20:57:09.339Z,98146.25
2022-10-24T20:59:36.197Z,98147.16
2022-10-24T21:02:03.103Z,98147.88
2022-10-24T21:04:30.206Z,98148.28
2022-10-24T21:06:57.031Z,98149.28
2022-10-24T21:09:23.939Z,98158.44
2022-10-24T21:11:50.759Z,98162.38
2022-10-24T21:14:20.834Z,98158.50
2022-10-24T21:16:47.984Z,98169.28
2022-10-24T21:19:14.833Z,98164.09
2022-10-24T21:21:41.740Z,98167.28
2022-10-24T21:24:08.739Z,98174.00
2022-10-24T21:26:38.666Z,98168.81
2022-10-24T21:29:31.803Z,98188.06
2022-10-24T21:31:53.196Z,98196.09
2022-10-24T21:34:20.249Z,98185.94
2022-10-24T21:36:47.525Z,98170.47
2022-10-24T21:39:15.565Z,98166.44
2022-10-24T21:41:42.486Z,98183.75
2022-10-24T21:44:09.356Z,98162.22
2022-10-24T21:46:36.208Z,98155.44
2022-10-24T21:49:03.105Z,98154.59
2022-10-24T21:51:35.148Z,98134.66
2022-10-24T21:54:04.402Z,98138.00
2022-10-24T21:56:33.180Z,98148.81
2022-10-24T22:01:32.346Z,98142.81
2022-10-24T22:03:59.998Z,98138.88
2022-10-24T22:06:28.132Z,98137.03
2022-10-24T22:08:55.337Z,98132.00
2022-10-24T22:11:24.861Z,98127.88
2022-10-24T22:13:52.181Z,98122.22
2022-10-24T22:16:21.719Z,98121.03
2022-10-24T22:18:49.173Z,98121.22
2022-10-24T22:21:27.629Z,98120.28
2022-10-24T22:24:02.041Z,98118.53
2022-10-24T22:26:29.794Z,98120.81
2022-10-24T22:28:57.065Z,98122.44
2022-10-24T22:31:25.626Z,98127.03
2022-10-24T22:33:53.004Z,98115.59
2022-10-24T22:36:47.874Z,98114.22
2022-10-24T22:39:17.078Z,98115.44
2022-10-24T22:41:44.871Z,98119.25
2022-10-24T22:44:13.583Z,98121.25
2022-10-24T22:47:18.020Z,98125.06
2022-10-24T22:50:03.641Z,98101.41
2022-10-24T22:52:30.701Z,98110.19
2022-10-24T22:54:58.752Z,98110.34
2022-10-24T22:57:25.973Z,98120.16
2022-10-24T22:59:53.060Z,98127.31
2022-10-24T23:02:29.200Z,98123.44
2022-10-24T23:05:19.875Z,98144.44
2022-10-24T23:08:00.003Z,98142.03
2022-10-24T23:10:26.871Z,98134.97
2022-10-24T23:12:54.094Z,98153.69
2022-10-24T23:15:22.048Z,98162.31
2022-10-24T23:17:50.149Z,98174.22
2022-10-24T23:20:36.091Z,98172.53
2022-10-24T23:23:15.984Z,98187.87
2022-10-24T23:25:48.932Z,98203.53
2022-10-24T23:28:20.016Z,98209.41
2022-10-24T23:30:47.131Z,98206.41
2022-10-24T23:33:22.793Z,98214.44
2022-10-24T23:35:57.288Z,98215.00
2022-10-24T23:38:24.502Z,98219.13
2022-10-24T23:40:51.813Z,98219.41
2022-10-24T23:43:21.145Z,98231.41
2022-10-24T23:45:58.213Z,98226.06
2022-10-24T23:48:50.150Z,98217.16
2022-10-24T23:51:24.794Z,98220.84
2022-10-24T23:53:55.541Z,98228.53
2022-10-24T23:56:24.532Z,98212.38
2022-10-24T23:58:51.793Z,98214.09
